Terminal Aerodrome Forecast
Issued by NWS Memphis, TN

Home | Current Version | Previous Version | Text Only | Print | Product List | Glossary On
Versions: 1 2 3 4 5 6 7 8 9 10 11 12 13 14 15 16 17
000
FTUS44 KMEG 271734
TAFMKL
TAF
KMKL 271734Z 2718/2818 33010KT P6SM BKN020
     FM272200 34008KT P6SM SCT030
     FM280000 00000KT P6SM SCT150
     FM280600 00000KT P6SM BKN100
     FM281300 17006KT P6SM SCT100=

USA.gov is the U.S. government's official web portal to all federal, state and local government web resources and services.